Time;durP1;ratioP1;P1;durP2;ratioP2;P2;SDS_P1;SDS_P2;PMS_P1;PMS_P2;Temp;Humidity;BMP_temperature;BMP_pressure;BME280_temperature;BME280_humidity;BME280_pressure;Samples;Min_cycle;Max_cycle;Signal;HPM_P1;HPM_P2
2023/07/24 00:01:39;;;;;;;6.10;3.47;;;;;;;;;;10339568;28;20087;-62
2023/07/24 00:06:39;;;;;;;4.32;3.90;;;;;;;;;;10339189;28;20068;-63
2023/07/24 00:11:37;;;;;;;5.97;3.67;;;;;;;;;;10338973;28;20072;-63
2023/07/24 00:16:35;;;;;;;5.32;4.15;;;;;;;;;;10340067;28;20072;-62
2023/07/24 00:21:33;;;;;;;5.53;3.95;;;;;;;;;;10335241;28;20091;-63
2023/07/24 00:26:33;;;;;;;4.95;4.47;;;;;;;;;;10330160;28;20076;-63
2023/07/24 00:31:31;;;;;;;3.95;3.55;;;;;;;;;;10334941;28;20063;-63
2023/07/24 00:36:29;;;;;;;4.43;4.00;;;;;;;;;;10316774;28;20082;-63
2023/07/24 00:41:28;;;;;;;5.10;3.38;;;;;;;;;;10336118;28;20060;-63
2023/07/24 00:46:31;;;;;;;4.22;3.88;;;;;;;;;;10318438;28;20072;-63
2023/07/24 00:51:31;;;;;;;4.15;3.55;;;;;;;;;;10318651;28;20080;-63
2023/07/24 00:56:33;;;;;;;7.43;3.92;;;;;;;;;;10336355;28;20702;-64
2023/07/24 01:01:33;;;;;;;4.72;4.03;;;;;;;;;;10337206;28;20091;-63
2023/07/24 01:06:31;;;;;;;5.20;4.40;;;;;;;;;;10334060;28;20079;-63
2023/07/24 01:11:33;;;;;;;5.55;4.10;;;;;;;;;;10315922;28;20080;-63
2023/07/24 01:16:37;;;;;;;4.88;4.30;;;;;;;;;;10315292;28;20074;-62
2023/07/24 01:21:42;;;;;;;5.85;4.38;;;;;;;;;;10336758;28;20091;-64
2023/07/24 01:26:42;;;;;;;4.72;4.13;;;;;;;;;;10335575;28;20782;-64
2023/07/24 01:31:40;;;;;;;5.03;4.43;;;;;;;;;;10327170;28;20067;-63
2023/07/24 01:36:38;;;;;;;5.95;3.90;;;;;;;;;;10326072;28;20060;-64
2023/07/24 01:41:37;;;;;;;5.07;4.60;;;;;;;;;;10308702;28;20079;-64
2023/07/24 01:46:36;;;;;;;5.53;4.47;;;;;;;;;;10331934;28;20082;-63
2023/07/24 01:51:35;;;;;;;6.28;4.60;;;;;;;;;;10316328;28;20086;-63
2023/07/24 01:56:35;;;;;;;5.43;4.90;;;;;;;;;;10338170;28;20123;-63
2023/07/24 02:01:33;;;;;;;5.47;4.03;;;;;;;;;;10314069;28;20082;-63
2023/07/24 02:06:33;;;;;;;4.90;4.50;;;;;;;;;;10333811;28;20083;-62
2023/07/24 02:11:31;;;;;;;5.32;4.50;;;;;;;;;;10334980;28;20071;-63
2023/07/24 02:16:29;;;;;;;5.22;4.70;;;;;;;;;;10314539;28;20071;-63
2023/07/24 02:21:28;;;;;;;4.75;4.10;;;;;;;;;;10330103;28;20067;-63
2023/07/24 02:26:27;;;;;;;4.60;4.20;;;;;;;;;;10333762;28;20084;-62
2023/07/24 02:31:26;;;;;;;5.68;5.18;;;;;;;;;;10332402;28;20087;-63
2023/07/24 02:36:27;;;;;;;5.28;4.78;;;;;;;;;;10335263;28;20088;-64
2023/07/24 02:41:25;;;;;;;5.20;4.65;;;;;;;;;;10314024;28;20076;-64
2023/07/24 02:46:25;;;;;;;6.10;4.68;;;;;;;;;;10316164;28;20075;-64
2023/07/24 02:51:24;;;;;;;6.45;5.43;;;;;;;;;;10333684;28;20072;-63
2023/07/24 02:56:22;;;;;;;5.03;4.30;;;;;;;;;;10331081;28;20457;-63
2023/07/24 03:01:20;;;;;;;5.43;4.90;;;;;;;;;;10316879;28;20078;-63
2023/07/24 03:06:20;;;;;;;5.65;4.55;;;;;;;;;;10317692;28;20071;-62
2023/07/24 03:11:18;;;;;;;6.45;4.70;;;;;;;;;;10317766;28;20099;-62
2023/07/24 03:16:17;;;;;;;10.27;5.40;;;;;;;;;;10322809;28;20453;-63
2023/07/24 03:21:15;;;;;;;6.07;5.25;;;;;;;;;;10333187;28;20843;-63
2023/07/24 03:26:15;;;;;;;4.45;4.15;;;;;;;;;;10332732;28;20112;-63
2023/07/24 03:31:13;;;;;;;5.38;4.88;;;;;;;;;;10317091;28;20079;-63
2023/07/24 03:36:11;;;;;;;5.40;4.80;;;;;;;;;;10331990;28;20145;-63
2023/07/24 03:41:10;;;;;;;7.05;4.60;;;;;;;;;;10334094;28;20060;-63
2023/07/24 03:46:11;;;;;;;5.32;4.20;;;;;;;;;;10309442;28;20082;-63
2023/07/24 03:51:10;;;;;;;4.80;4.47;;;;;;;;;;10333341;28;20082;-63
2023/07/24 03:56:08;;;;;;;5.28;4.85;;;;;;;;;;10327318;28;20074;-64
2023/07/24 04:01:06;;;;;;;9.82;5.20;;;;;;;;;;10335131;28;20471;-64
2023/07/24 04:06:06;;;;;;;7.43;5.40;;;;;;;;;;10334462;28;20076;-64
2023/07/24 04:11:04;;;;;;;5.32;4.80;;;;;;;;;;10335913;28;20509;-64
2023/07/24 04:16:02;;;;;;;5.13;4.63;;;;;;;;;;10334094;28;20068;-63
2023/07/24 04:21:01;;;;;;;6.35;5.07;;;;;;;;;;10334585;28;20505;-64
2023/07/24 04:26:00;;;;;;;5.85;5.35;;;;;;;;;;10338773;28;20078;-65
2023/07/24 04:31:01;;;;;;;6.68;5.07;;;;;;;;;;10332378;28;20184;-63
2023/07/24 04:35:59;;;;;;;5.95;5.38;;;;;;;;;;10333542;28;20070;-63
2023/07/24 04:40:57;;;;;;;6.28;4.93;;;;;;;;;;10331760;28;20072;-65
2023/07/24 04:46:00;;;;;;;5.38;4.88;;;;;;;;;;10328936;28;20064;-65
2023/07/24 04:50:58;;;;;;;5.35;4.57;;;;;;;;;;10332009;28;20084;-63
2023/07/24 04:55:56;;;;;;;8.50;4.97;;;;;;;;;;10333364;28;20560;-63
2023/07/24 05:00:54;;;;;;;9.07;8.38;;;;;;;;;;10330322;28;20072;-64
2023/07/24 05:05:56;;;;;;;11.55;10.50;;;;;;;;;;10332926;28;20477;-63
2023/07/24 05:10:55;;;;;;;6.03;5.40;;;;;;;;;;10330190;28;20076;-63
2023/07/24 05:15:53;;;;;;;6.68;5.28;;;;;;;;;;10332484;28;20552;-63
2023/07/24 05:20:52;;;;;;;5.93;5.43;;;;;;;;;;10332487;28;20558;-64
2023/07/24 05:25:58;;;;;;;8.70;5.07;;;;;;;;;;10334843;28;20087;-63
2023/07/24 05:30:56;;;;;;;9.35;7.85;;;;;;;;;;10331325;28;20513;-64
2023/07/24 05:35:58;;;;;;;5.70;5.10;;;;;;;;;;10330690;28;20071;-63
2023/07/24 05:40:58;;;;;;;29.38;26.50;;;;;;;;;;10331784;28;20067;-62
2023/07/24 05:45:57;;;;;;;5.40;4.70;;;;;;;;;;10332222;28;20094;-63
2023/07/24 05:50:55;;;;;;;5.63;4.90;;;;;;;;;;10331010;28;20501;-63
2023/07/24 05:56:01;;;;;;;4.93;4.53;;;;;;;;;;10328878;28;20536;-63
2023/07/24 06:00:59;;;;;;;6.85;4.82;;;;;;;;;;10327010;28;20072;-63
2023/07/24 06:05:57;;;;;;;5.95;4.78;;;;;;;;;;10327148;28;20106;-63
2023/07/24 06:10:56;;;;;;;6.57;4.68;;;;;;;;;;10337462;28;20059;-63
2023/07/24 06:15:55;;;;;;;5.28;4.78;;;;;;;;;;10334448;28;20481;-63
2023/07/24 06:20:54;;;;;;;8.45;4.30;;;;;;;;;;10331203;28;20064;-63
2023/07/24 06:25:52;;;;;;;7.32;4.88;;;;;;;;;;10339319;28;20067;-63
2023/07/24 06:30:52;;;;;;;33.08;29.88;;;;;;;;;;10346698;28;20091;-64
2023/07/24 06:35:52;;;;;;;5.68;4.43;;;;;;;;;;10351841;28;20071;-63
2023/07/24 06:40:50;;;;;;;7.60;6.38;;;;;;;;;;10351105;28;20063;-63
2023/07/24 06:45:49;;;;;;;8.18;6.43;;;;;;;;;;10343721;28;20154;-63
2023/07/24 06:50:47;;;;;;;5.97;4.90;;;;;;;;;;10343510;28;20079;-63
2023/07/24 06:55:50;;;;;;;8.15;5.35;;;;;;;;;;10348057;28;20068;-62
2023/07/24 07:00:48;;;;;;;12.35;6.18;;;;;;;;;;10339236;28;20064;-63
2023/07/24 07:05:46;;;;;;;10.30;8.13;;;;;;;;;;10334938;28;20710;-63
2023/07/24 07:10:55;;;;;;;4.78;4.30;;;;;;;;;;10341623;28;20081;-63
2023/07/24 07:15:53;;;;;;;5.22;4.72;;;;;;;;;;10348793;28;20067;-63
2023/07/24 07:20:52;;;;;;;4.75;4.22;;;;;;;;;;10354386;28;20496;-63
2023/07/24 07:25:52;;;;;;;6.05;5.07;;;;;;;;;;10355796;28;20079;-63
2023/07/24 07:30:51;;;;;;;6.20;4.55;;;;;;;;;;10351618;28;20563;-63
2023/07/24 07:35:49;;;;;;;5.65;4.72;;;;;;;;;;10354781;28;20079;-63
2023/07/24 07:40:47;;;;;;;5.65;5.05;;;;;;;;;;10346194;28;20506;-63
2023/07/24 07:45:47;;;;;;;6.10;3.88;;;;;;;;;;10345837;28;20084;-65
2023/07/24 07:50:45;;;;;;;8.90;3.42;;;;;;;;;;10340425;28;20083;-62
2023/07/24 07:55:44;;;;;;;4.55;4.13;;;;;;;;;;10323257;28;20075;-62
2023/07/24 08:00:42;;;;;;;3.67;3.38;;;;;;;;;;10344264;28;20111;-63
2023/07/24 08:05:41;;;;;;;5.68;4.28;;;;;;;;;;10344600;28;20063;-64
2023/07/24 08:10:40;;;;;;;6.82;3.92;;;;;;;;;;10354048;28;20075;-63
2023/07/24 08:15:38;;;;;;;4.80;3.53;;;;;;;;;;10356554;28;20086;-63
2023/07/24 08:20:37;;;;;;;10.32;9.48;;;;;;;;;;10357091;28;20468;-63
2023/07/24 08:25:36;;;;;;;6.78;3.92;;;;;;;;;;10352094;28;20075;-64
2023/07/24 08:30:35;;;;;;;6.40;4.00;;;;;;;;;;10354887;28;20139;-65
2023/07/24 08:35:33;;;;;;;4.57;4.15;;;;;;;;;;10354619;28;20496;-63
2023/07/24 08:40:32;;;;;;;3.53;3.05;;;;;;;;;;10334698;28;20083;-64
2023/07/24 08:45:31;;;;;;;4.90;3.40;;;;;;;;;;10347371;28;20098;-64
2023/07/24 08:50:30;;;;;;;6.00;3.78;;;;;;;;;;10353821;28;20080;-64
2023/07/24 08:55:29;;;;;;;4.53;3.10;;;;;;;;;;10334512;28;20501;-64
2023/07/24 09:00:28;;;;;;;2.95;2.60;;;;;;;;;;10340312;28;20502;-63
2023/07/24 09:05:27;;;;;;;3.85;2.90;;;;;;;;;;10337033;28;20068;-63
2023/07/24 09:10:26;;;;;;;3.95;3.65;;;;;;;;;;10348733;28;20063;-64
2023/07/24 09:15:24;;;;;;;6.03;2.83;;;;;;;;;;10350189;28;20067;-63
2023/07/24 09:20:23;;;;;;;4.07;2.85;;;;;;;;;;10347511;28;20535;-64
2023/07/24 09:25:32;;;;;;;3.47;3.10;;;;;;;;;;10350049;28;20059;-64
2023/07/24 09:30:30;;;;;;;4.68;4.20;;;;;;;;;;10351111;28;20531;-63
2023/07/24 09:35:28;;;;;;;5.57;3.58;;;;;;;;;;10354915;28;20070;-63
2023/07/24 09:40:27;;;;;;;4.22;3.08;;;;;;;;;;10352448;28;20102;-63
2023/07/24 09:45:27;;;;;;;3.30;3.00;;;;;;;;;;10345411;28;20561;-63
2023/07/24 09:50:26;;;;;;;3.90;3.35;;;;;;;;;;10350643;28;20537;-64
2023/07/24 09:55:29;;;;;;;3.30;3.00;;;;;;;;;;10353456;28;20106;-64
2023/07/24 10:00:27;;;;;;;;;;;;;;;;;;10350624;28;20585;-64
2023/07/24 10:05:26;;;;;;;7.13;4.15;;;;;;;;;;10348030;28;19970;-64
2023/07/24 10:10:25;;;;;;;4.05;3.65;;;;;;;;;;10346975;28;20072;-64
2023/07/24 10:15:23;;;;;;;3.20;2.90;;;;;;;;;;10353247;28;20527;-63
2023/07/24 10:20:22;;;;;;;3.58;2.95;;;;;;;;;;10348662;28;20075;-64
2023/07/24 10:25:30;;;;;;;8.80;3.83;;;;;;;;;;10345451;28;20063;-64
2023/07/24 10:30:29;;;;;;;3.65;3.28;;;;;;;;;;10349771;28;20075;-63
2023/07/24 10:35:37;;;;;;;3.42;3.03;;;;;;;;;;10352688;28;20083;-64
2023/07/24 10:40:35;;;;;;;;;;;;;;;;;;10346797;28;20064;-64
2023/07/24 10:45:41;;;;;;;4.70;4.03;;;;;;;;;;10351062;28;19947;-64
2023/07/24 10:50:40;;;;;;;4.18;3.15;;;;;;;;;;10345011;28;20083;-65
2023/07/24 10:55:39;;;;;;;3.65;3.20;;;;;;;;;;10346911;28;20098;-64
2023/07/24 11:00:37;;;;;;;6.70;3.40;;;;;;;;;;10352930;28;20071;-64
2023/07/24 11:05:39;;;;;;;4.70;4.13;;;;;;;;;;10349065;28;20079;-64
2023/07/24 11:10:37;;;;;;;3.80;3.50;;;;;;;;;;10349620;28;20470;-64
2023/07/24 11:15:36;;;;;;;3.78;3.35;;;;;;;;;;10355909;28;20071;-65
2023/07/24 11:20:34;;;;;;;3.85;3.55;;;;;;;;;;10349696;28;20512;-64
2023/07/24 11:25:34;;;;;;;4.25;3.22;;;;;;;;;;10346835;28;20527;-64
2023/07/24 11:30:32;;;;;;;4.22;3.83;;;;;;;;;;10340660;28;20577;-64
2023/07/24 11:35:31;;;;;;;4.20;3.80;;;;;;;;;;10340134;28;20080;-65
2023/07/24 11:40:34;;;;;;;4.50;3.97;;;;;;;;;;10344228;28;20075;-64
2023/07/24 11:45:42;;;;;;;5.18;4.68;;;;;;;;;;10347722;28;20076;-64
2023/07/24 11:50:44;;;;;;;4.50;4.10;;;;;;;;;;10350071;28;20084;-64
2023/07/24 11:55:43;;;;;;;4.57;4.18;;;;;;;;;;10349822;28;20554;-65
2023/07/24 12:00:41;;;;;;;6.90;4.68;;;;;;;;;;10348712;28;20067;-64
2023/07/24 12:05:40;;;;;;;15.30;5.00;;;;;;;;;;10346939;28;20080;-64
2023/07/24 12:10:39;;;;;;;5.82;4.57;;;;;;;;;;10353996;28;20076;-64
2023/07/24 12:15:39;;;;;;;4.20;3.65;;;;;;;;;;10339730;28;20461;-65
2023/07/24 12:20:37;;;;;;;4.90;4.05;;;;;;;;;;10339277;28;20075;-63
2023/07/24 12:25:35;;;;;;;6.45;4.68;;;;;;;;;;10357194;28;20472;-64
2023/07/24 12:30:34;;;;;;;5.50;4.93;;;;;;;;;;10355513;28;20087;-64
2023/07/24 12:35:33;;;;;;;5.18;4.40;;;;;;;;;;10354294;28;20068;-64
2023/07/24 12:40:32;;;;;;;5.22;4.72;;;;;;;;;;10357111;28;20064;-64
2023/07/24 12:45:30;;;;;;;4.78;4.28;;;;;;;;;;10353469;28;20291;-64
2023/07/24 12:50:28;;;;;;;4.68;4.28;;;;;;;;;;10345263;28;20090;-64
2023/07/24 12:55:29;;;;;;;6.93;4.78;;;;;;;;;;10344736;28;20071;-64
2023/07/24 13:00:27;;;;;;;5.28;4.70;;;;;;;;;;10347073;28;20086;-63
2023/07/24 13:05:26;;;;;;;5.65;4.32;;;;;;;;;;10345468;28;20516;-64
2023/07/24 13:10:25;;;;;;;5.50;4.25;;;;;;;;;;10337643;28;20091;-64
2023/07/24 13:15:25;;;;;;;4.70;4.30;;;;;;;;;;10336652;28;20055;-63
2023/07/24 13:20:23;;;;;;;4.68;4.28;;;;;;;;;;10348756;28;20071;-63
2023/07/24 13:25:21;;;;;;;6.80;4.43;;;;;;;;;;10352899;28;20504;-63
2023/07/24 13:30:19;;;;;;;5.32;4.50;;;;;;;;;;10347902;28;20083;-62
2023/07/24 13:35:19;;;;;;;5.30;4.80;;;;;;;;;;10340792;28;20102;-64
2023/07/24 13:40:17;;;;;;;11.98;6.05;;;;;;;;;;10344768;28;20059;-62
2023/07/24 13:45:15;;;;;;;7.55;5.45;;;;;;;;;;10341133;28;20079;-65
2023/07/24 13:50:14;;;;;;;7.00;5.07;;;;;;;;;;10333753;28;20095;-64
2023/07/24 13:55:14;;;;;;;7.60;4.90;;;;;;;;;;10335668;28;20071;-64
2023/07/24 14:00:12;;;;;;;5.65;5.15;;;;;;;;;;10334493;28;20536;-63
2023/07/24 14:05:12;;;;;;;5.75;5.20;;;;;;;;;;10317529;28;20488;-62
2023/07/24 14:10:11;;;;;;;7.05;5.93;;;;;;;;;;10319056;28;20071;-63
2023/07/24 14:15:11;;;;;;;6.32;5.00;;;;;;;;;;10318369;28;20076;-63
2023/07/24 14:20:10;;;;;;;6.57;5.43;;;;;;;;;;10338559;28;20090;-64
2023/07/24 14:25:09;;;;;;;7.13;5.40;;;;;;;;;;10334989;28;20667;-63
2023/07/24 14:30:09;;;;;;;7.60;5.88;;;;;;;;;;10335729;28;20064;-63
2023/07/24 14:35:09;;;;;;;8.13;6.38;;;;;;;;;;10327727;28;20064;-63
2023/07/24 14:40:08;;;;;;;9.52;6.65;;;;;;;;;;10322886;28;20063;-62
2023/07/24 14:45:07;;;;;;;7.90;7.07;;;;;;;;;;10323595;28;20095;-63
2023/07/24 14:50:06;;;;;;;8.85;6.32;;;;;;;;;;10326962;28;20106;-63
2023/07/24 14:55:07;;;;;;;7.90;6.78;;;;;;;;;;10329728;28;20473;-63
2023/07/24 15:00:06;;;;;;;14.57;9.00;;;;;;;;;;10331333;28;20099;-63
2023/07/24 15:05:05;;;;;;;8.98;6.10;;;;;;;;;;10329733;28;20086;-63
2023/07/24 15:10:03;;;;;;;12.55;8.50;;;;;;;;;;10325228;28;20048;-63
2023/07/24 15:15:03;;;;;;;8.57;7.20;;;;;;;;;;10329944;28;20064;-63
2023/07/24 15:20:02;;;;;;;28.23;13.93;;;;;;;;;;10328352;28;20072;-63
2023/07/24 15:25:02;;;;;;;9.80;7.90;;;;;;;;;;10321229;28;20080;-63
2023/07/24 15:30:00;;;;;;;9.00;7.30;;;;;;;;;;10329605;28;20079;-62
2023/07/24 15:35:01;;;;;;;8.07;7.28;;;;;;;;;;10329268;28;20483;-63
2023/07/24 15:39:59;;;;;;;8.30;7.50;;;;;;;;;;10337546;28;20079;-63
2023/07/24 15:44:57;;;;;;;12.88;7.20;;;;;;;;;;10340831;28;20067;-64
2023/07/24 15:49:56;;;;;;;9.55;7.32;;;;;;;;;;10351422;28;20437;-63
2023/07/24 15:54:55;;;;;;;9.02;8.15;;;;;;;;;;10340484;28;20140;-63
2023/07/24 15:59:54;;;;;;;8.13;7.30;;;;;;;;;;10341301;28;20094;-63
2023/07/24 16:04:52;;;;;;;13.93;12.40;;;;;;;;;;10341242;28;20070;-64
2023/07/24 16:09:50;;;;;;;9.93;8.20;;;;;;;;;;10339388;28;20090;-63
2023/07/24 16:14:50;;;;;;;10.93;8.00;;;;;;;;;;10317511;28;20082;-62
2023/07/24 16:19:48;;;;;;;11.55;7.63;;;;;;;;;;10340380;28;20075;-62
2023/07/24 16:24:46;;;;;;;19.00;9.82;;;;;;;;;;10333778;28;20140;-63
2023/07/24 16:29:45;;;;;;;11.63;9.02;;;;;;;;;;10344059;28;20060;-64
2023/07/24 16:34:44;;;;;;;11.60;8.88;;;;;;;;;;10336623;28;20076;-63
2023/07/24 16:39:43;;;;;;;10.52;7.75;;;;;;;;;;10339953;28;20493;-64
2023/07/24 16:44:41;;;;;;;11.77;9.35;;;;;;;;;;10336315;28;20064;-63
2023/07/24 16:49:39;;;;;;;10.73;7.53;;;;;;;;;;10336431;28;20197;-64
2023/07/24 16:54:39;;;;;;;11.85;6.93;;;;;;;;;;10335441;28;20068;-66
2023/07/24 16:59:37;;;;;;;9.68;8.68;;;;;;;;;;10332761;28;20082;-65
2023/07/24 17:04:35;;;;;;;9.43;7.90;;;;;;;;;;10338521;28;20173;-64
2023/07/24 17:09:34;;;;;;;8.70;7.80;;;;;;;;;;10342624;28;20063;-62
2023/07/24 17:14:33;;;;;;;13.90;9.45;;;;;;;;;;10337221;28;20129;-63
2023/07/24 17:19:31;;;;;;;10.50;7.60;;;;;;;;;;10340098;28;20067;-63
2023/07/24 17:24:30;;;;;;;9.27;7.60;;;;;;;;;;10340352;28;20076;-64
2023/07/24 17:29:28;;;;;;;9.43;8.25;;;;;;;;;;10340249;28;20489;-63
2023/07/24 17:34:28;;;;;;;8.85;7.38;;;;;;;;;;10339118;28;20072;-67
2023/07/24 17:39:26;;;;;;;21.20;9.40;;;;;;;;;;10340587;28;20071;-67
2023/07/24 17:44:24;;;;;;;9.60;8.00;;;;;;;;;;10337623;28;20060;-67
2023/07/24 17:49:22;;;;;;;11.45;7.68;;;;;;;;;;10337197;28;20072;-66
2023/07/24 17:54:22;;;;;;;8.60;7.78;;;;;;;;;;10334815;28;20071;-66
2023/07/24 17:59:21;;;;;;;11.90;7.88;;;;;;;;;;10334556;28;20462;-67
2023/07/24 18:04:19;;;;;;;10.10;8.10;;;;;;;;;;10319912;28;20072;-67
2023/07/24 18:09:18;;;;;;;9.18;6.97;;;;;;;;;;10335107;28;20536;-67
2023/07/24 18:14:22;;;;;;;8.90;8.00;;;;;;;;;;10336521;28;20059;-66
2023/07/24 18:19:22;;;;;;;10.38;8.18;;;;;;;;;;10344733;28;20064;-66
2023/07/24 18:24:20;;;;;;;10.30;9.27;;;;;;;;;;10336448;28;20098;-66
2023/07/24 18:29:20;;;;;;;12.32;8.85;;;;;;;;;;10342474;28;20067;-67
2023/07/24 18:34:19;;;;;;;20.85;10.50;;;;;;;;;;10339485;28;20079;-67
2023/07/24 18:39:17;;;;;;;14.32;9.10;;;;;;;;;;10333890;28;20079;-66
2023/07/24 18:44:16;;;;;;;12.75;10.55;;;;;;;;;;10334284;28;20064;-64
2023/07/24 18:49:17;;;;;;;15.65;10.25;;;;;;;;;;10318595;28;20076;-65
2023/07/24 18:54:15;;;;;;;13.57;9.32;;;;;;;;;;10332119;28;20068;-66
2023/07/24 18:59:14;;;;;;;10.50;8.48;;;;;;;;;;10333560;28;20071;-66
2023/07/24 19:04:12;;;;;;;7.97;7.13;;;;;;;;;;10336534;28;20075;-67
2023/07/24 19:09:12;;;;;;;9.50;8.57;;;;;;;;;;10333288;28;20068;-66
2023/07/24 19:14:10;;;;;;;11.82;9.40;;;;;;;;;;10342745;28;20064;-66
2023/07/24 19:19:09;;;;;;;10.93;8.85;;;;;;;;;;10342371;28;20071;-65
2023/07/24 19:24:08;;;;;;;10.75;9.73;;;;;;;;;;10338212;28;20065;-65
2023/07/24 19:29:08;;;;;;;9.55;8.07;;;;;;;;;;10332970;28;20060;-66
2023/07/24 19:34:07;;;;;;;10.25;8.40;;;;;;;;;;10339131;28;20075;-63
2023/07/24 19:39:05;;;;;;;8.80;7.57;;;;;;;;;;10344570;28;20075;-63
2023/07/24 19:44:04;;;;;;;9.43;8.07;;;;;;;;;;10342302;28;20087;-63
2023/07/24 19:49:03;;;;;;;9.90;7.53;;;;;;;;;;10332438;28;20076;-66
2023/07/24 19:54:04;;;;;;;9.43;8.43;;;;;;;;;;10336445;28;20086;-64
2023/07/24 19:59:02;;;;;;;10.48;8.43;;;;;;;;;;10334018;28;20481;-64
2023/07/24 20:04:00;;;;;;;9.65;8.60;;;;;;;;;;10330442;28;20083;-64
2023/07/24 20:09:00;;;;;;;10.27;8.15;;;;;;;;;;10333769;28;20068;-64
2023/07/24 20:13:59;;;;;;;10.80;8.75;;;;;;;;;;10332793;28;20095;-63
2023/07/24 20:18:57;;;;;;;13.05;9.18;;;;;;;;;;10334279;28;20068;-64
2023/07/24 20:23:55;;;;;;;10.55;8.80;;;;;;;;;;10339177;28;20079;-64
2023/07/24 20:28:55;;;;;;;11.98;8.02;;;;;;;;;;10337327;28;20079;-64
2023/07/24 20:33:53;;;;;;;9.55;8.57;;;;;;;;;;10339503;28;20087;-65
2023/07/24 20:38:52;;;;;;;11.05;9.27;;;;;;;;;;10335083;28;20071;-64
2023/07/24 20:43:50;;;;;;;13.63;9.60;;;;;;;;;;10342778;28;20072;-65
2023/07/24 20:48:49;;;;;;;10.10;8.73;;;;;;;;;;10335718;28;20087;-65
2023/07/24 20:53:48;;;;;;;10.18;9.18;;;;;;;;;;10335164;28;20067;-65
2023/07/24 20:58:46;;;;;;;12.40;10.95;;;;;;;;;;10339112;28;20075;-65
2023/07/24 21:03:44;;;;;;;12.05;9.93;;;;;;;;;;10338123;28;20523;-65
2023/07/24 21:08:44;;;;;;;11.45;10.25;;;;;;;;;;10335932;28;20075;-64
2023/07/24 21:13:42;;;;;;;12.80;10.45;;;;;;;;;;10331882;28;20076;-64
2023/07/24 21:18:40;;;;;;;12.63;10.98;;;;;;;;;;10340836;28;20484;-65
2023/07/24 21:23:38;;;;;;;19.88;9.95;;;;;;;;;;10341158;28;20045;-65
2023/07/24 21:28:38;;;;;;;17.10;10.65;;;;;;;;;;10336176;28;20493;-65
2023/07/24 21:33:40;;;;;;;11.10;9.88;;;;;;;;;;10333450;28;20453;-65
2023/07/24 21:38:39;;;;;;;16.75;10.80;;;;;;;;;;10337328;28;20064;-65
2023/07/24 21:43:39;;;;;;;15.32;10.30;;;;;;;;;;10341098;28;20508;-65
2023/07/24 21:48:37;;;;;;;10.68;9.60;;;;;;;;;;10337746;28;20076;-65
2023/07/24 21:53:36;;;;;;;11.57;9.98;;;;;;;;;;10314750;28;20083;-63
2023/07/24 21:58:34;;;;;;;11.20;10.02;;;;;;;;;;10331722;28;20076;-65
2023/07/24 22:03:34;;;;;;;13.18;10.15;;;;;;;;;;10327984;28;20086;-64
2023/07/24 22:08:33;;;;;;;12.98;10.07;;;;;;;;;;10329927;28;20067;-64
2023/07/24 22:13:31;;;;;;;12.40;10.95;;;;;;;;;;10324034;28;20083;-64
2023/07/24 22:18:29;;;;;;;11.15;10.00;;;;;;;;;;10323232;28;20076;-64
2023/07/24 22:23:30;;;;;;;13.13;9.90;;;;;;;;;;10326910;28;20514;-64
2023/07/24 22:28:28;;;;;;;10.65;9.55;;;;;;;;;;10329200;28;20075;-64
2023/07/24 22:33:26;;;;;;;12.80;9.70;;;;;;;;;;10324311;28;20351;-65
2023/07/24 22:38:24;;;;;;;14.40;10.60;;;;;;;;;;10320503;28;20068;-64
2023/07/24 22:43:24;;;;;;;13.57;11.35;;;;;;;;;;10298298;28;20072;-63
2023/07/24 22:48:22;;;;;;;13.77;10.65;;;;;;;;;;10325959;28;20095;-63
2023/07/24 22:53:21;;;;;;;12.05;10.40;;;;;;;;;;10326772;28;20072;-63
2023/07/24 22:58:20;;;;;;;12.25;11.05;;;;;;;;;;10328824;28;20071;-64
2023/07/24 23:03:19;;;;;;;13.70;11.82;;;;;;;;;;10326090;28;20083;-64
2023/07/24 23:08:18;;;;;;;15.75;11.50;;;;;;;;;;10327174;28;20083;-64
2023/07/24 23:13:16;;;;;;;15.57;11.73;;;;;;;;;;10327441;28;20075;-64
2023/07/24 23:18:16;;;;;;;15.75;11.40;;;;;;;;;;10325201;28;20091;-64
2023/07/24 23:23:15;;;;;;;13.60;10.18;;;;;;;;;;10327776;28;20485;-64
2023/07/24 23:28:14;;;;;;;12.70;10.05;;;;;;;;;;10326590;28;20079;-63
2023/07/24 23:33:12;;;;;;;10.45;9.45;;;;;;;;;;10327278;28;20087;-65
2023/07/24 23:38:10;;;;;;;11.18;10.05;;;;;;;;;;10324546;28;20087;-64
2023/07/24 23:43:10;;;;;;;10.15;8.85;;;;;;;;;;10328065;28;20076;-63
2023/07/24 23:48:08;;;;;;;10.65;9.10;;;;;;;;;;10327305;28;20083;-64
2023/07/24 23:53:06;;;;;;;9.50;8.50;;;;;;;;;;10330889;28;20087;-64
2023/07/24 23:58:04;;;;;;;9.52;8.63;;;;;;;;;;10330326;28;20102;-64
